IDA1 TJSJ-SKPS
Flight info
| Callsign | IDA1 |
|---|---|
| Flight time | N/A |
| Altitude | 38000 |
| Route | GANBO1 SCAPA UL325 BEXER UG885 ABA UL450 STB UG431 ENPUT DCT CLO |
| Aircraft | B738/M-SDE2E3FGHIRWXY/LB1 |
Departure
| Time | N/A |
|---|---|
| Airport | Luis Munoz Marin International Airport (TJSJ) |
Arrival
| Time | 2026-04-19 12:25 |
|---|---|
| Airport | Antonio Nariño Airport (SKPS) |
| Time | Latitude | Longitude | Altitude | Speed | Heading |
|---|---|---|---|---|---|
| 2026-04-19 10:59 | 14.64802 | -67.99862 | 37975 ft | 456 kts | 207° |
| 2026-04-19 11:00 | 14.53024 | -68.04779 | 37962 ft | 455 kts | 207° |
| 2026-04-19 11:00 | 14.41397 | -68.09630 | 37953 ft | 445 kts | 207° |
| 2026-04-19 11:01 | 14.30096 | -68.14343 | 37959 ft | 439 kts | 207° |
| 2026-04-19 11:01 | 14.21153 | -68.18201 | 37957 ft | 440 kts | 214° |
| 2026-04-19 11:02 | 14.16313 | -68.21875 | 37951 ft | 425 kts | 227° |
| 2026-04-19 11:02 | 14.13928 | -68.24388 | 37951 ft | 407 kts | 228° |
| 2026-04-19 11:02 | 14.11088 | -68.27438 | 37971 ft | 397 kts | 228° |
| 2026-04-19 11:03 | 14.03265 | -68.35700 | 38333 ft | 405 kts | 227° |
| 2026-04-19 11:03 | 14.00671 | -68.38413 | 38665 ft | 403 kts | 227° |
| 2026-04-19 11:03 | 13.98700 | -68.40474 | 38837 ft | 402 kts | 227° |
| 2026-04-19 11:04 | 13.96754 | -68.42509 | 38955 ft | 404 kts | 227° |
| 2026-04-19 11:04 | 13.94774 | -68.44585 | 39038 ft | 405 kts | 227° |
| 2026-04-19 11:04 | 13.90825 | -68.48759 | 39300 ft | 406 kts | 228° |
| 2026-04-19 11:05 | 13.88854 | -68.50844 | 39459 ft | 405 kts | 228° |
| 2026-04-19 11:05 | 13.86911 | -68.52900 | 39582 ft | 406 kts | 228° |
| 2026-04-19 11:05 | 13.84938 | -68.54985 | 39708 ft | 406 kts | 228° |
| 2026-04-19 11:05 | 13.82967 | -68.57066 | 39851 ft | 405 kts | 228° |
| 2026-04-19 11:06 | 13.78225 | -68.62061 | 39963 ft | 407 kts | 228° |
| 2026-04-19 11:06 | 13.70250 | -68.70363 | 39967 ft | 412 kts | 227° |
| 2026-04-19 11:07 | 13.62149 | -68.78794 | 39963 ft | 414 kts | 227° |
| 2026-04-19 11:07 | 13.54075 | -68.87194 | 39959 ft | 415 kts | 227° |
| 2026-04-19 11:08 | 13.45933 | -68.95657 | 39962 ft | 415 kts | 227° |
| 2026-04-19 11:08 | 13.37806 | -69.04095 | 39958 ft | 415 kts | 227° |
| 2026-04-19 11:09 | 13.30226 | -69.11960 | 39959 ft | 414 kts | 227° |
| 2026-04-19 11:09 | 13.22626 | -69.19830 | 39954 ft | 414 kts | 227° |
| 2026-04-19 11:10 | 13.14550 | -69.28190 | 39956 ft | 413 kts | 227° |
| 2026-04-19 11:10 | 13.06459 | -69.36560 | 39955 ft | 413 kts | 227° |
| 2026-04-19 11:11 | 12.99465 | -69.43796 | 39956 ft | 413 kts | 227° |
| 2026-04-19 11:11 | 12.91384 | -69.52168 | 39954 ft | 412 kts | 227° |
| 2026-04-19 11:12 | 12.83303 | -69.60532 | 39952 ft | 412 kts | 227° |
| 2026-04-19 11:12 | 12.75215 | -69.68894 | 39940 ft | 412 kts | 227° |
| 2026-04-19 11:13 | 12.67120 | -69.77255 | 39933 ft | 413 kts | 227° |
| 2026-04-19 11:13 | 12.59080 | -69.85553 | 39939 ft | 413 kts | 227° |
| 2026-04-19 11:14 | 12.51794 | -69.93053 | 39937 ft | 413 kts | 225° |
| 2026-04-19 11:14 | 12.46815 | -69.96696 | 39947 ft | 418 kts | 214° |
| 2026-04-19 11:15 | 12.36768 | -70.02738 | 39938 ft | 418 kts | 214° |
| 2026-04-19 11:15 | 12.28044 | -70.08049 | 39940 ft | 419 kts | 214° |
| 2026-04-19 11:16 | 12.18054 | -70.14050 | 39938 ft | 419 kts | 214° |
| 2026-04-19 11:16 | 12.07992 | -70.20098 | 39940 ft | 420 kts | 214° |
| 2026-04-19 11:17 | 11.97914 | -70.26154 | 39940 ft | 420 kts | 214° |
| 2026-04-19 11:17 | 11.87839 | -70.32203 | 39942 ft | 420 kts | 214° |
| 2026-04-19 11:18 | 11.77744 | -70.38258 | 39941 ft | 421 kts | 214° |
| 2026-04-19 11:18 | 11.68102 | -70.44038 | 39940 ft | 421 kts | 214° |
| 2026-04-19 11:19 | 11.58785 | -70.49504 | 39940 ft | 422 kts | 213° |
| 2026-04-19 11:19 | 11.48581 | -70.55466 | 39936 ft | 423 kts | 213° |
| 2026-04-19 11:20 | 11.39758 | -70.60809 | 39936 ft | 422 kts | 214° |
| 2026-04-19 11:20 | 11.29693 | -70.67004 | 39935 ft | 423 kts | 214° |
| 2026-04-19 11:21 | 11.19600 | -70.73182 | 39936 ft | 423 kts | 214° |
| 2026-04-19 11:22 | 11.04489 | -70.82420 | 39937 ft | 424 kts | 214° |
| 2026-04-19 11:22 | 10.94330 | -70.88625 | 39936 ft | 425 kts | 214° |
| 2026-04-19 11:23 | 10.84175 | -70.94823 | 39944 ft | 425 kts | 214° |
| 2026-04-19 11:23 | 10.74087 | -71.00976 | 39940 ft | 425 kts | 214° |
| 2026-04-19 11:24 | 10.66857 | -71.05297 | 39939 ft | 427 kts | 211° |
| 2026-04-19 11:24 | 10.56620 | -71.10632 | 39934 ft | 427 kts | 210° |
| 2026-04-19 11:25 | 10.46112 | -71.16165 | 39933 ft | 427 kts | 211° |
| 2026-04-19 11:25 | 10.36823 | -71.21075 | 39930 ft | 427 kts | 211° |
| 2026-04-19 11:26 | 10.26280 | -71.26653 | 39926 ft | 428 kts | 211° |
| 2026-04-19 11:26 | 10.15714 | -71.32237 | 39927 ft | 428 kts | 210° |
| 2026-04-19 11:27 | 10.06481 | -71.37114 | 39932 ft | 428 kts | 210° |
| 2026-04-19 11:27 | 9.95952 | -71.42656 | 39928 ft | 428 kts | 210° |
| 2026-04-19 11:28 | 9.85379 | -71.48218 | 39927 ft | 428 kts | 210° |
| 2026-04-19 11:28 | 9.74869 | -71.53745 | 39931 ft | 429 kts | 210° |
| 2026-04-19 11:29 | 9.64274 | -71.59312 | 39934 ft | 429 kts | 210° |
| 2026-04-19 11:29 | 9.53666 | -71.64882 | 39933 ft | 430 kts | 210° |
| 2026-04-19 11:30 | 9.43025 | -71.70466 | 39940 ft | 431 kts | 210° |
| 2026-04-19 11:30 | 9.32367 | -71.76054 | 39942 ft | 432 kts | 210° |
| 2026-04-19 11:31 | 9.21662 | -71.81664 | 39944 ft | 433 kts | 210° |
| 2026-04-19 11:31 | 9.10938 | -71.87280 | 39942 ft | 434 kts | 210° |
| 2026-04-19 11:32 | 9.00175 | -71.92913 | 39944 ft | 435 kts | 210° |
| 2026-04-19 11:32 | 8.91428 | -71.97685 | 39944 ft | 436 kts | 212° |
| 2026-04-19 11:33 | 8.80828 | -72.03682 | 39949 ft | 437 kts | 211° |
| 2026-04-19 11:33 | 8.70236 | -72.09623 | 39946 ft | 437 kts | 211° |
| 2026-04-19 11:34 | 8.59581 | -72.15591 | 39953 ft | 438 kts | 211° |
| 2026-04-19 11:34 | 8.48898 | -72.21572 | 39959 ft | 438 kts | 211° |
| 2026-04-19 11:35 | 8.38298 | -72.27503 | 39963 ft | 438 kts | 211° |
| 2026-04-19 11:35 | 8.27581 | -72.33497 | 39969 ft | 437 kts | 211° |
| 2026-04-19 11:36 | 8.19894 | -72.37947 | 39974 ft | 435 kts | 218° |
| 2026-04-19 11:36 | 8.12912 | -72.43841 | 39984 ft | 434 kts | 222° |
| 2026-04-19 11:37 | 8.05269 | -72.50411 | 39990 ft | 434 kts | 222° |
| 2026-04-19 11:37 | 7.94452 | -72.59604 | 39997 ft | 434 kts | 222° |
| 2026-04-19 11:38 | 7.85244 | -72.67415 | 40005 ft | 434 kts | 222° |
| 2026-04-19 11:38 | 7.77552 | -72.73938 | 40028 ft | 434 kts | 222° |
| 2026-04-19 11:39 | 7.68295 | -72.81783 | 40052 ft | 435 kts | 222° |
| 2026-04-19 11:39 | 7.59025 | -72.89635 | 40073 ft | 436 kts | 221° |
| 2026-04-19 11:40 | 7.49714 | -72.97517 | 40057 ft | 437 kts | 222° |
| 2026-04-19 11:40 | 7.40399 | -73.05397 | 40043 ft | 437 kts | 221° |
| 2026-04-19 11:41 | 7.31130 | -73.13235 | 40042 ft | 437 kts | 221° |
| 2026-04-19 11:41 | 7.21798 | -73.21121 | 40049 ft | 437 kts | 221° |
| 2026-04-19 11:42 | 7.12463 | -73.29005 | 40045 ft | 437 kts | 221° |
| 2026-04-19 11:42 | 7.03112 | -73.36899 | 40014 ft | 438 kts | 221° |
| 2026-04-19 11:43 | 6.93842 | -73.44719 | 39982 ft | 437 kts | 221° |
| 2026-04-19 11:43 | 6.84509 | -73.52589 | 39968 ft | 438 kts | 221° |
| 2026-04-19 11:44 | 6.75157 | -73.60472 | 39982 ft | 437 kts | 221° |
| 2026-04-19 11:44 | 6.65821 | -73.68335 | 39993 ft | 438 kts | 221° |
| 2026-04-19 11:45 | 6.56522 | -73.76164 | 40006 ft | 437 kts | 221° |
| 2026-04-19 11:45 | 6.47205 | -73.84004 | 40013 ft | 437 kts | 221° |
| 2026-04-19 11:46 | 6.37861 | -73.91863 | 40019 ft | 438 kts | 221° |
| 2026-04-19 11:46 | 6.28487 | -73.99743 | 40033 ft | 438 kts | 221° |
| 2026-04-19 11:47 | 6.19170 | -74.07572 | 40046 ft | 439 kts | 221° |
| 2026-04-19 11:47 | 6.09813 | -74.15431 | 40055 ft | 439 kts | 221° |
| 2026-04-19 11:48 | 6.00370 | -74.23358 | 40063 ft | 440 kts | 221° |
| 2026-04-19 11:48 | 5.90951 | -74.31260 | 40076 ft | 441 kts | 221° |
| 2026-04-19 11:49 | 5.81560 | -74.39137 | 40088 ft | 442 kts | 221° |
| 2026-04-19 11:49 | 5.72102 | -74.47065 | 40107 ft | 442 kts | 221° |
| 2026-04-19 11:50 | 5.62699 | -74.54944 | 40126 ft | 442 kts | 221° |
| 2026-04-19 11:50 | 5.53225 | -74.62879 | 40132 ft | 443 kts | 221° |
| 2026-04-19 11:51 | 5.46486 | -74.68522 | 40100 ft | 446 kts | 221° |
| 2026-04-19 11:51 | 5.36975 | -74.76481 | 40028 ft | 444 kts | 221° |
| 2026-04-19 11:52 | 5.27495 | -74.84412 | 39941 ft | 443 kts | 221° |
| 2026-04-19 11:52 | 5.18091 | -74.92276 | 39927 ft | 441 kts | 221° |
| 2026-04-19 11:53 | 5.08675 | -75.00147 | 40040 ft | 440 kts | 221° |
| 2026-04-19 11:53 | 4.99251 | -75.08022 | 40191 ft | 440 kts | 221° |
| 2026-04-19 11:53 | 4.94536 | -75.11960 | 40295 ft | 440 kts | 221° |
| 2026-04-19 11:54 | 4.89924 | -75.15813 | 40306 ft | 440 kts | 221° |
| 2026-04-19 11:54 | 4.80484 | -75.23694 | 40314 ft | 440 kts | 221° |
| 2026-04-19 11:55 | 4.71109 | -75.31519 | 40301 ft | 439 kts | 221° |
| 2026-04-19 11:55 | 4.61682 | -75.39384 | 40276 ft | 440 kts | 220° |
| 2026-04-19 11:56 | 4.52253 | -75.47248 | 40261 ft | 441 kts | 220° |
| 2026-04-19 11:56 | 4.42804 | -75.55127 | 40167 ft | 442 kts | 220° |
| 2026-04-19 11:57 | 4.33337 | -75.63017 | 40146 ft | 443 kts | 220° |
| 2026-04-19 11:57 | 4.23838 | -75.70931 | 40169 ft | 444 kts | 220° |
| 2026-04-19 11:58 | 4.14335 | -75.78847 | 40222 ft | 445 kts | 220° |
| 2026-04-19 11:58 | 4.04802 | -75.86783 | 40244 ft | 446 kts | 220° |
| 2026-04-19 11:59 | 3.95270 | -75.94717 | 40238 ft | 446 kts | 220° |
| 2026-04-19 11:59 | 3.85773 | -76.02620 | 40219 ft | 446 kts | 220° |
| 2026-04-19 12:00 | 3.76225 | -76.10564 | 40204 ft | 446 kts | 220° |
| 2026-04-19 12:00 | 3.66640 | -76.18535 | 40126 ft | 446 kts | 220° |
| 2026-04-19 12:01 | 3.57149 | -76.26426 | 40054 ft | 446 kts | 220° |
| 2026-04-19 12:01 | 3.47591 | -76.34373 | 40048 ft | 445 kts | 220° |
| 2026-04-19 12:02 | 3.40150 | -76.40421 | 40054 ft | 445 kts | 214° |
| 2026-04-19 12:02 | 3.33341 | -76.43803 | 40089 ft | 445 kts | 205° |
| 2026-04-19 12:03 | 3.22124 | -76.48910 | 40093 ft | 445 kts | 205° |
| 2026-04-19 12:03 | 3.10878 | -76.54106 | 40096 ft | 445 kts | 205° |
| 2026-04-19 12:04 | 2.99631 | -76.59307 | 40086 ft | 445 kts | 205° |
| 2026-04-19 12:04 | 2.96764 | -76.60632 | 39937 ft | 448 kts | 205° |
| 2026-04-19 12:04 | 2.93912 | -76.61950 | 39397 ft | 453 kts | 205° |
| 2026-04-19 12:04 | 2.91061 | -76.63268 | 38815 ft | 452 kts | 205° |
| 2026-04-19 12:05 | 2.88246 | -76.64568 | 38157 ft | 451 kts | 205° |
| 2026-04-19 12:05 | 2.85351 | -76.65906 | 37470 ft | 451 kts | 205° |
| 2026-04-19 12:05 | 2.82506 | -76.67221 | 36824 ft | 450 kts | 205° |
| 2026-04-19 12:05 | 2.79665 | -76.68533 | 36185 ft | 450 kts | 205° |
| 2026-04-19 12:06 | 2.76813 | -76.69851 | 35490 ft | 452 kts | 205° |
| 2026-04-19 12:06 | 2.73957 | -76.71170 | 34772 ft | 454 kts | 205° |
| 2026-04-19 12:06 | 2.71075 | -76.72501 | 34016 ft | 457 kts | 205° |
| 2026-04-19 12:06 | 2.68176 | -76.73840 | 33166 ft | 460 kts | 205° |
| 2026-04-19 12:07 | 2.65300 | -76.75168 | 32365 ft | 461 kts | 205° |
| 2026-04-19 12:07 | 2.62343 | -76.76534 | 31529 ft | 463 kts | 205° |
| 2026-04-19 12:07 | 2.59450 | -76.77870 | 30655 ft | 466 kts | 205° |
| 2026-04-19 12:07 | 2.56505 | -76.79230 | 29669 ft | 469 kts | 206° |
| 2026-04-19 12:08 | 2.53548 | -76.80596 | 28937 ft | 465 kts | 206° |
| 2026-04-19 12:08 | 2.50622 | -76.81947 | 28289 ft | 459 kts | 206° |
| 2026-04-19 12:08 | 2.47719 | -76.83287 | 28050 ft | 458 kts | 206° |
| 2026-04-19 12:08 | 2.44887 | -76.84593 | 27910 ft | 441 kts | 206° |
| 2026-04-19 12:09 | 2.42147 | -76.85857 | 27814 ft | 424 kts | 206° |
| 2026-04-19 12:09 | 2.39529 | -76.87065 | 27789 ft | 407 kts | 206° |
| 2026-04-19 12:09 | 2.37012 | -76.88226 | 27782 ft | 390 kts | 206° |
| 2026-04-19 12:09 | 2.34591 | -76.89343 | 27751 ft | 376 kts | 206° |
| 2026-04-19 12:10 | 2.32210 | -76.90443 | 26952 ft | 382 kts | 206° |
| 2026-04-19 12:10 | 2.29726 | -76.91594 | 25734 ft | 402 kts | 206° |
| 2026-04-19 12:10 | 2.27140 | -76.92790 | 24578 ft | 418 kts | 206° |
| 2026-04-19 12:10 | 2.24454 | -76.94032 | 23501 ft | 430 kts | 206° |
| 2026-04-19 12:11 | 2.21751 | -76.95280 | 22641 ft | 431 kts | 206° |
| 2026-04-19 12:11 | 2.19037 | -76.96532 | 22036 ft | 426 kts | 206° |
| 2026-04-19 12:11 | 2.16367 | -76.97762 | 21446 ft | 420 kts | 206° |
| 2026-04-19 12:11 | 2.13727 | -76.98979 | 20839 ft | 415 kts | 206° |
| 2026-04-19 12:12 | 2.11133 | -77.00176 | 20216 ft | 412 kts | 206° |
| 2026-04-19 12:12 | 2.08506 | -77.01388 | 19598 ft | 410 kts | 206° |
| 2026-04-19 12:12 | 2.05929 | -77.02577 | 19003 ft | 406 kts | 206° |
| 2026-04-19 12:12 | 2.03373 | -77.03757 | 18429 ft | 403 kts | 206° |
| 2026-04-19 12:13 | 2.00838 | -77.04927 | 17775 ft | 398 kts | 206° |
| 2026-04-19 12:13 | 1.98351 | -77.06074 | 17029 ft | 391 kts | 206° |
| 2026-04-19 12:13 | 1.95908 | -77.07202 | 16237 ft | 392 kts | 206° |
| 2026-04-19 12:13 | 1.93441 | -77.08340 | 15757 ft | 386 kts | 206° |
| 2026-04-19 12:14 | 1.91057 | -77.09439 | 15648 ft | 368 kts | 206° |
| 2026-04-19 12:14 | 1.88788 | -77.10485 | 15509 ft | 349 kts | 206° |
| 2026-04-19 12:14 | 1.86622 | -77.11485 | 15187 ft | 338 kts | 206° |
| 2026-04-19 12:14 | 1.84530 | -77.12451 | 15025 ft | 323 kts | 206° |
| 2026-04-19 12:15 | 1.82520 | -77.13379 | 14793 ft | 312 kts | 206° |
| 2026-04-19 12:15 | 1.80579 | -77.14273 | 14592 ft | 302 kts | 207° |
| 2026-04-19 12:15 | 1.78727 | -77.15128 | 14364 ft | 292 kts | 207° |
| 2026-04-19 12:15 | 1.76920 | -77.16030 | 14067 ft | 287 kts | 210° |
| 2026-04-19 12:16 | 1.75153 | -77.16957 | 13710 ft | 286 kts | 210° |
| 2026-04-19 12:16 | 1.73399 | -77.17886 | 13303 ft | 285 kts | 210° |
| 2026-04-19 12:16 | 1.71655 | -77.18807 | 12935 ft | 283 kts | 210° |
| 2026-04-19 12:16 | 1.69916 | -77.19722 | 12599 ft | 280 kts | 210° |
| 2026-04-19 12:17 | 1.68193 | -77.20626 | 12337 ft | 278 kts | 210° |
| 2026-04-19 12:17 | 1.66476 | -77.21525 | 12095 ft | 279 kts | 210° |
| 2026-04-19 12:17 | 1.64750 | -77.22428 | 11854 ft | 280 kts | 210° |
| 2026-04-19 12:17 | 1.63037 | -77.23323 | 11604 ft | 281 kts | 209° |
| 2026-04-19 12:18 | 1.61308 | -77.24226 | 11345 ft | 280 kts | 210° |
| 2026-04-19 12:18 | 1.59575 | -77.25131 | 11106 ft | 280 kts | 209° |
| 2026-04-19 12:18 | 1.57867 | -77.26022 | 10852 ft | 274 kts | 209° |
| 2026-04-19 12:18 | 1.56197 | -77.26894 | 10600 ft | 268 kts | 209° |
| 2026-04-19 12:19 | 1.54549 | -77.27754 | 10379 ft | 266 kts | 209° |
| 2026-04-19 12:19 | 1.52909 | -77.28609 | 10131 ft | 265 kts | 209° |
| 2026-04-19 12:19 | 1.51311 | -77.29443 | 9886 ft | 259 kts | 209° |
| 2026-04-19 12:19 | 1.49730 | -77.30267 | 9636 ft | 254 kts | 208° |
| 2026-04-19 12:20 | 1.48175 | -77.31079 | 9391 ft | 248 kts | 209° |
| 2026-04-19 12:20 | 1.46667 | -77.31865 | 9160 ft | 240 kts | 209° |
| 2026-04-19 12:20 | 1.45223 | -77.32619 | 8974 ft | 225 kts | 209° |
| 2026-04-19 12:20 | 1.43894 | -77.33313 | 8812 ft | 205 kts | 209° |
| 2026-04-19 12:21 | 1.42707 | -77.33957 | 8799 ft | 182 kts | 209° |
| 2026-04-19 12:21 | 1.41667 | -77.34528 | 8768 ft | 165 kts | 211° |
| 2026-04-19 12:21 | 1.40652 | -77.35088 | 8861 ft | 169 kts | 211° |
| 2026-04-19 12:21 | 1.39612 | -77.35661 | 8801 ft | 170 kts | 210° |
| 2026-04-19 12:22 | 1.38580 | -77.36220 | 8729 ft | 170 kts | 208° |
| 2026-04-19 12:22 | 1.37504 | -77.36568 | 8520 ft | 161 kts | 188° |
| 2026-04-19 12:22 | 1.36395 | -77.36491 | 8294 ft | 159 kts | 166° |
| 2026-04-19 12:22 | 1.35405 | -77.36040 | 8067 ft | 156 kts | 146° |
| 2026-04-19 12:23 | 1.34596 | -77.35315 | 7870 ft | 157 kts | 129° |
| 2026-04-19 12:23 | 1.34058 | -77.34374 | 7661 ft | 156 kts | 110° |
| 2026-04-19 12:23 | 1.33880 | -77.33681 | 7511 ft | 155 kts | 98° |
| 2026-04-19 12:23 | 1.33898 | -77.32611 | 7277 ft | 154 kts | 80° |
| 2026-04-19 12:24 | 1.34251 | -77.31608 | 7054 ft | 153 kts | 61° |
| 2026-04-19 12:24 | 1.34900 | -77.30767 | 6846 ft | 152 kts | 43° |
| 2026-04-19 12:24 | 1.35773 | -77.30173 | 6642 ft | 152 kts | 25° |
| 2026-04-19 12:24 | 1.36756 | -77.29851 | 6455 ft | 150 kts | 13° |
| 2026-04-19 12:25 | 1.37773 | -77.29602 | 6244 ft | 150 kts | 14° |
| 2026-04-19 12:25 | 1.38783 | -77.29328 | 6021 ft | 151 kts | 15° |
| 2026-04-19 12:25 | 1.39697 | -77.29086 | 5958 ft | 110 kts | 15° |
| 2026-04-19 12:25 | 1.40225 | -77.28945 | 5923 ft | 47 kts | 15° |
| 2026-04-19 12:26 | 1.40371 | -77.28906 | 5917 ft | 12 kts | 14° |
| 2026-04-19 12:26 | 1.40456 | -77.28884 | 5919 ft | 12 kts | 14° |
| 2026-04-19 12:26 | 1.40542 | -77.28862 | 5919 ft | 14 kts | 14° |
| 2026-04-19 12:26 | 1.40611 | -77.28855 | 5906 ft | 8 kts | 28° |
| 2026-04-19 12:27 | 1.40616 | -77.28822 | 5907 ft | 5 kts | 127° |
| 2026-04-19 12:27 | 1.40589 | -77.28831 | 5909 ft | 4 kts | 220° |
| 2026-04-19 12:27 | 1.40563 | -77.28852 | 5910 ft | 5 kts | 213° |
| 2026-04-19 12:27 | 1.40524 | -77.28866 | 5927 ft | 10 kts | 194° |
| 2026-04-19 12:28 | 1.40161 | -77.28961 | 5936 ft | 40 kts | 195° |
| 2026-04-19 12:28 | 1.39911 | -77.29028 | 5948 ft | 33 kts | 195° |
| 2026-04-19 12:28 | 1.39734 | -77.29076 | 5956 ft | 22 kts | 194° |
| 2026-04-19 12:29 | 1.39624 | -77.29103 | 5964 ft | 10 kts | 185° |
| 2026-04-19 12:29 | 1.39601 | -77.29087 | 5961 ft | 3 kts | 125° |
| 2026-04-19 12:29 | 1.39591 | -77.29058 | 5961 ft | 7 kts | 104° |
| 2026-04-19 12:29 | 1.39608 | -77.29023 | 5962 ft | 6 kts | 25° |
| 2026-04-19 12:30 | 1.39615 | -77.28998 | 5960 ft | 4 kts | 95° |
| 2026-04-19 12:30 | 1.39611 | -77.28979 | 5960 ft | 0 kts | 103° |
| 2026-04-19 12:30 | 1.39611 | -77.28978 | 5960 ft | 0 kts | 103° |